sensor_id;sensor_type;location;lat;lon;timestamp;P1;durP1;ratioP1;P2;durP2;ratioP2
14797;SDS011;7490;63.708;20.368;2023-12-20T00:00:34;0.20;;;0.20;;
14797;SDS011;7490;63.708;20.368;2023-12-20T00:03:02;0.83;;;0.27;;
14797;SDS011;7490;63.708;20.368;2023-12-20T00:05:28;0.70;;;0.30;;
14797;SDS011;7490;63.708;20.368;2023-12-20T00:07:54;0.63;;;0.20;;
14797;SDS011;7490;63.708;20.368;2023-12-20T00:10:19;0.93;;;0.30;;
14797;SDS011;7490;63.708;20.368;2023-12-20T00:12:45;1.43;;;0.30;;
14797;SDS011;7490;63.708;20.368;2023-12-20T00:15:10;0.20;;;0.20;;
14797;SDS011;7490;63.708;20.368;2023-12-20T00:17:36;0.50;;;0.30;;
14797;SDS011;7490;63.708;20.368;2023-12-20T00:20:02;1.33;;;0.30;;
14797;SDS011;7490;63.708;20.368;2023-12-20T00:22:28;0.20;;;0.20;;
14797;SDS011;7490;63.708;20.368;2023-12-20T00:24:53;0.40;;;0.20;;
14797;SDS011;7490;63.708;20.368;2023-12-20T00:27:19;0.77;;;0.40;;
14797;SDS011;7490;63.708;20.368;2023-12-20T00:29:44;0.30;;;0.30;;
14797;SDS011;7490;63.708;20.368;2023-12-20T00:32:14;0.37;;;0.30;;
14797;SDS011;7490;63.708;20.368;2023-12-20T00:34:40;0.40;;;0.40;;
14797;SDS011;7490;63.708;20.368;2023-12-20T00:37:05;1.50;;;0.40;;
14797;SDS011;7490;63.708;20.368;2023-12-20T00:39:31;0.50;;;0.33;;
14797;SDS011;7490;63.708;20.368;2023-12-20T00:41:58;0.63;;;0.30;;
14797;SDS011;7490;63.708;20.368;2023-12-20T00:44:23;0.50;;;0.50;;
14797;SDS011;7490;63.708;20.368;2023-12-20T00:46:49;0.20;;;0.20;;
14797;SDS011;7490;63.708;20.368;2023-12-20T00:49:15;0.60;;;0.30;;
14797;SDS011;7490;63.708;20.368;2023-12-20T00:51:40;0.33;;;0.33;;
14797;SDS011;7490;63.708;20.368;2023-12-20T00:54:06;1.03;;;0.30;;
14797;SDS011;7490;63.708;20.368;2023-12-20T00:56:31;0.60;;;0.40;;
14797;SDS011;7490;63.708;20.368;2023-12-20T00:58:57;0.53;;;0.27;;
14797;SDS011;7490;63.708;20.368;2023-12-20T01:01:23;0.63;;;0.40;;
14797;SDS011;7490;63.708;20.368;2023-12-20T01:03:48;0.40;;;0.40;;
14797;SDS011;7490;63.708;20.368;2023-12-20T01:06:16;0.30;;;0.30;;
14797;SDS011;7490;63.708;20.368;2023-12-20T01:08:42;0.57;;;0.33;;
14797;SDS011;7490;63.708;20.368;2023-12-20T01:11:07;0.37;;;0.37;;
14797;SDS011;7490;63.708;20.368;2023-12-20T01:13:33;1.27;;;0.30;;
14797;SDS011;7490;63.708;20.368;2023-12-20T01:15:59;0.47;;;0.30;;
14797;SDS011;7490;63.708;20.368;2023-12-20T01:18:24;1.33;;;0.33;;
14797;SDS011;7490;63.708;20.368;2023-12-20T01:20:50;0.90;;;0.30;;
14797;SDS011;7490;63.708;20.368;2023-12-20T01:23:16;1.27;;;0.40;;
14797;SDS011;7490;63.708;20.368;2023-12-20T01:25:41;0.20;;;0.20;;
14797;SDS011;7490;63.708;20.368;2023-12-20T01:28:08;0.30;;;0.30;;
14797;SDS011;7490;63.708;20.368;2023-12-20T01:30:33;0.27;;;0.27;;
14797;SDS011;7490;63.708;20.368;2023-12-20T01:33:00;0.60;;;0.30;;
14797;SDS011;7490;63.708;20.368;2023-12-20T01:35:26;0.30;;;0.30;;
14797;SDS011;7490;63.708;20.368;2023-12-20T01:37:52;0.30;;;0.30;;
14797;SDS011;7490;63.708;20.368;2023-12-20T01:40:21;0.30;;;0.30;;
14797;SDS011;7490;63.708;20.368;2023-12-20T01:42:47;0.73;;;0.40;;
14797;SDS011;7490;63.708;20.368;2023-12-20T01:45:22;0.30;;;0.30;;
14797;SDS011;7490;63.708;20.368;2023-12-20T01:47:48;0.33;;;0.30;;
14797;SDS011;7490;63.708;20.368;2023-12-20T01:50:14;0.37;;;0.30;;
14797;SDS011;7490;63.708;20.368;2023-12-20T01:52:41;0.93;;;0.30;;
14797;SDS011;7490;63.708;20.368;2023-12-20T01:55:08;0.40;;;0.40;;
14797;SDS011;7490;63.708;20.368;2023-12-20T01:57:39;0.47;;;0.30;;
14797;SDS011;7490;63.708;20.368;2023-12-20T02:00:07;0.67;;;0.47;;
14797;SDS011;7490;63.708;20.368;2023-12-20T02:02:34;0.47;;;0.40;;
14797;SDS011;7490;63.708;20.368;2023-12-20T02:05:05;0.30;;;0.30;;
14797;SDS011;7490;63.708;20.368;2023-12-20T02:07:31;0.40;;;0.40;;
14797;SDS011;7490;63.708;20.368;2023-12-20T02:09:58;0.50;;;0.40;;
14797;SDS011;7490;63.708;20.368;2023-12-20T02:12:23;0.30;;;0.30;;
14797;SDS011;7490;63.708;20.368;2023-12-20T02:14:49;0.30;;;0.30;;
14797;SDS011;7490;63.708;20.368;2023-12-20T02:17:15;0.77;;;0.30;;
14797;SDS011;7490;63.708;20.368;2023-12-20T02:19:41;0.43;;;0.30;;
14797;SDS011;7490;63.708;20.368;2023-12-20T02:24:36;0.57;;;0.30;;
14797;SDS011;7490;63.708;20.368;2023-12-20T02:27:02;1.07;;;0.50;;
14797;SDS011;7490;63.708;20.368;2023-12-20T02:29:30;1.53;;;0.50;;
14797;SDS011;7490;63.708;20.368;2023-12-20T02:31:57;1.47;;;0.50;;
14797;SDS011;7490;63.708;20.368;2023-12-20T02:34:22;1.80;;;0.60;;
14797;SDS011;7490;63.708;20.368;2023-12-20T02:36:48;0.97;;;0.43;;
14797;SDS011;7490;63.708;20.368;2023-12-20T02:39:14;0.40;;;0.40;;
14797;SDS011;7490;63.708;20.368;2023-12-20T02:41:39;0.93;;;0.30;;
14797;SDS011;7490;63.708;20.368;2023-12-20T02:44:05;1.33;;;0.60;;
14797;SDS011;7490;63.708;20.368;2023-12-20T02:46:30;1.80;;;0.50;;
14797;SDS011;7490;63.708;20.368;2023-12-20T02:48:56;1.97;;;0.50;;
14797;SDS011;7490;63.708;20.368;2023-12-20T02:51:22;0.40;;;0.40;;
14797;SDS011;7490;63.708;20.368;2023-12-20T02:53:47;0.30;;;0.30;;
14797;SDS011;7490;63.708;20.368;2023-12-20T02:56:13;1.10;;;0.60;;
14797;SDS011;7490;63.708;20.368;2023-12-20T02:58:39;0.57;;;0.50;;
14797;SDS011;7490;63.708;20.368;2023-12-20T03:01:05;1.70;;;0.70;;
14797;SDS011;7490;63.708;20.368;2023-12-20T03:03:31;1.00;;;0.40;;
14797;SDS011;7490;63.708;20.368;2023-12-20T03:05:57;1.17;;;0.30;;
14797;SDS011;7490;63.708;20.368;2023-12-20T03:08:22;2.03;;;0.50;;
14797;SDS011;7490;63.708;20.368;2023-12-20T03:10:48;0.83;;;0.40;;
14797;SDS011;7490;63.708;20.368;2023-12-20T03:13:14;0.83;;;0.50;;
14797;SDS011;7490;63.708;20.368;2023-12-20T03:15:39;0.50;;;0.50;;
14797;SDS011;7490;63.708;20.368;2023-12-20T03:18:05;0.80;;;0.47;;
14797;SDS011;7490;63.708;20.368;2023-12-20T03:20:31;0.60;;;0.60;;
14797;SDS011;7490;63.708;20.368;2023-12-20T03:23:00;0.53;;;0.50;;
14797;SDS011;7490;63.708;20.368;2023-12-20T03:25:26;1.40;;;0.50;;
14797;SDS011;7490;63.708;20.368;2023-12-20T03:27:52;0.33;;;0.33;;
14797;SDS011;7490;63.708;20.368;2023-12-20T03:30:18;0.53;;;0.40;;
14797;SDS011;7490;63.708;20.368;2023-12-20T03:32:44;1.57;;;0.63;;
14797;SDS011;7490;63.708;20.368;2023-12-20T03:35:09;0.50;;;0.50;;
14797;SDS011;7490;63.708;20.368;2023-12-20T03:37:35;0.57;;;0.43;;
14797;SDS011;7490;63.708;20.368;2023-12-20T03:40:01;0.60;;;0.40;;
14797;SDS011;7490;63.708;20.368;2023-12-20T03:42:27;1.30;;;0.70;;
14797;SDS011;7490;63.708;20.368;2023-12-20T03:44:53;0.50;;;0.50;;
14797;SDS011;7490;63.708;20.368;2023-12-20T03:47:18;1.27;;;0.43;;
14797;SDS011;7490;63.708;20.368;2023-12-20T03:49:44;1.10;;;0.40;;
14797;SDS011;7490;63.708;20.368;2023-12-20T03:52:09;0.57;;;0.40;;
14797;SDS011;7490;63.708;20.368;2023-12-20T03:54:35;0.70;;;0.57;;
14797;SDS011;7490;63.708;20.368;2023-12-20T03:57:01;1.13;;;0.50;;
14797;SDS011;7490;63.708;20.368;2023-12-20T03:59:26;0.60;;;0.60;;
14797;SDS011;7490;63.708;20.368;2023-12-20T04:01:52;1.77;;;0.60;;
14797;SDS011;7490;63.708;20.368;2023-12-20T04:04:18;2.37;;;0.70;;
14797;SDS011;7490;63.708;20.368;2023-12-20T04:06:44;1.00;;;0.60;;
14797;SDS011;7490;63.708;20.368;2023-12-20T04:09:10;0.40;;;0.37;;
14797;SDS011;7490;63.708;20.368;2023-12-20T04:11:38;1.07;;;0.60;;
14797;SDS011;7490;63.708;20.368;2023-12-20T04:14:04;1.13;;;0.57;;
14797;SDS011;7490;63.708;20.368;2023-12-20T04:16:30;2.13;;;0.60;;
14797;SDS011;7490;63.708;20.368;2023-12-20T04:18:55;2.23;;;0.70;;
14797;SDS011;7490;63.708;20.368;2023-12-20T04:21:21;1.90;;;0.53;;
14797;SDS011;7490;63.708;20.368;2023-12-20T04:23:47;1.13;;;0.63;;
14797;SDS011;7490;63.708;20.368;2023-12-20T04:26:12;1.67;;;0.80;;
14797;SDS011;7490;63.708;20.368;2023-12-20T04:28:38;1.97;;;0.60;;
14797;SDS011;7490;63.708;20.368;2023-12-20T04:31:04;1.17;;;0.50;;
14797;SDS011;7490;63.708;20.368;2023-12-20T04:33:29;1.03;;;0.60;;
14797;SDS011;7490;63.708;20.368;2023-12-20T04:35:55;0.67;;;0.50;;
14797;SDS011;7490;63.708;20.368;2023-12-20T04:38:20;1.00;;;0.67;;
14797;SDS011;7490;63.708;20.368;2023-12-20T04:40:46;1.20;;;0.50;;
14797;SDS011;7490;63.708;20.368;2023-12-20T04:43:13;0.50;;;0.40;;
14797;SDS011;7490;63.708;20.368;2023-12-20T04:45:38;1.37;;;0.50;;
14797;SDS011;7490;63.708;20.368;2023-12-20T04:48:04;1.30;;;0.60;;
14797;SDS011;7490;63.708;20.368;2023-12-20T04:50:30;2.93;;;0.70;;
14797;SDS011;7490;63.708;20.368;2023-12-20T04:52:56;0.83;;;0.47;;
14797;SDS011;7490;63.708;20.368;2023-12-20T04:55:21;0.47;;;0.30;;
14797;SDS011;7490;63.708;20.368;2023-12-20T04:57:47;0.37;;;0.37;;
14797;SDS011;7490;63.708;20.368;2023-12-20T05:00:13;3.40;;;0.67;;
14797;SDS011;7490;63.708;20.368;2023-12-20T05:02:40;1.50;;;0.60;;
14797;SDS011;7490;63.708;20.368;2023-12-20T05:05:06;1.03;;;0.40;;
14797;SDS011;7490;63.708;20.368;2023-12-20T05:07:32;1.70;;;0.80;;
14797;SDS011;7490;63.708;20.368;2023-12-20T05:09:58;1.30;;;0.50;;
14797;SDS011;7490;63.708;20.368;2023-12-20T05:12:24;0.50;;;0.50;;
14797;SDS011;7490;63.708;20.368;2023-12-20T05:14:51;1.23;;;0.77;;
14797;SDS011;7490;63.708;20.368;2023-12-20T05:17:17;3.03;;;0.47;;
14797;SDS011;7490;63.708;20.368;2023-12-20T05:19:45;1.00;;;0.73;;
14797;SDS011;7490;63.708;20.368;2023-12-20T05:22:10;2.73;;;0.70;;
14797;SDS011;7490;63.708;20.368;2023-12-20T05:24:36;3.27;;;0.80;;
14797;SDS011;7490;63.708;20.368;2023-12-20T05:27:02;0.67;;;0.57;;
14797;SDS011;7490;63.708;20.368;2023-12-20T05:29:28;1.27;;;0.60;;
14797;SDS011;7490;63.708;20.368;2023-12-20T05:31:53;1.47;;;0.50;;
14797;SDS011;7490;63.708;20.368;2023-12-20T05:34:19;1.03;;;0.40;;
14797;SDS011;7490;63.708;20.368;2023-12-20T05:36:45;0.70;;;0.70;;
14797;SDS011;7490;63.708;20.368;2023-12-20T05:39:11;2.30;;;0.47;;
14797;SDS011;7490;63.708;20.368;2023-12-20T05:41:36;1.30;;;0.60;;
14797;SDS011;7490;63.708;20.368;2023-12-20T05:44:02;4.27;;;0.80;;
14797;SDS011;7490;63.708;20.368;2023-12-20T05:46:28;2.03;;;0.70;;
14797;SDS011;7490;63.708;20.368;2023-12-20T05:48:53;1.67;;;0.50;;
14797;SDS011;7490;63.708;20.368;2023-12-20T05:51:19;1.60;;;0.70;;
14797;SDS011;7490;63.708;20.368;2023-12-20T05:53:45;0.80;;;0.50;;
14797;SDS011;7490;63.708;20.368;2023-12-20T05:56:10;0.80;;;0.60;;
14797;SDS011;7490;63.708;20.368;2023-12-20T05:58:36;1.47;;;0.67;;
14797;SDS011;7490;63.708;20.368;2023-12-20T06:01:04;0.70;;;0.40;;
14797;SDS011;7490;63.708;20.368;2023-12-20T06:03:30;2.60;;;0.60;;
14797;SDS011;7490;63.708;20.368;2023-12-20T06:05:56;4.00;;;0.60;;
14797;SDS011;7490;63.708;20.368;2023-12-20T06:08:21;1.30;;;0.60;;
14797;SDS011;7490;63.708;20.368;2023-12-20T06:10:47;0.70;;;0.70;;
14797;SDS011;7490;63.708;20.368;2023-12-20T06:13:13;2.37;;;1.50;;
14797;SDS011;7490;63.708;20.368;2023-12-20T06:15:39;0.83;;;0.57;;
14797;SDS011;7490;63.708;20.368;2023-12-20T06:18:05;1.17;;;0.60;;
14797;SDS011;7490;63.708;20.368;2023-12-20T06:20:31;3.53;;;0.90;;
14797;SDS011;7490;63.708;20.368;2023-12-20T06:22:57;1.70;;;0.70;;
14797;SDS011;7490;63.708;20.368;2023-12-20T06:25:23;3.57;;;0.83;;
14797;SDS011;7490;63.708;20.368;2023-12-20T06:27:48;1.50;;;0.80;;
14797;SDS011;7490;63.708;20.368;2023-12-20T06:30:15;0.90;;;0.60;;
14797;SDS011;7490;63.708;20.368;2023-12-20T06:32:41;0.93;;;0.60;;
14797;SDS011;7490;63.708;20.368;2023-12-20T06:35:07;3.00;;;0.80;;
14797;SDS011;7490;63.708;20.368;2023-12-20T06:37:36;0.40;;;0.40;;
14797;SDS011;7490;63.708;20.368;2023-12-20T06:40:01;1.20;;;0.70;;
14797;SDS011;7490;63.708;20.368;2023-12-20T06:42:27;2.70;;;0.70;;
14797;SDS011;7490;63.708;20.368;2023-12-20T06:44:53;2.93;;;0.70;;
14797;SDS011;7490;63.708;20.368;2023-12-20T06:47:18;0.70;;;0.70;;
14797;SDS011;7490;63.708;20.368;2023-12-20T06:49:44;2.33;;;0.50;;
14797;SDS011;7490;63.708;20.368;2023-12-20T06:52:09;2.47;;;0.60;;
14797;SDS011;7490;63.708;20.368;2023-12-20T06:54:35;1.33;;;0.60;;
14797;SDS011;7490;63.708;20.368;2023-12-20T06:57:01;0.60;;;0.50;;
14797;SDS011;7490;63.708;20.368;2023-12-20T06:59:28;0.90;;;0.50;;
14797;SDS011;7490;63.708;20.368;2023-12-20T07:01:54;0.87;;;0.50;;
14797;SDS011;7490;63.708;20.368;2023-12-20T07:04:20;0.83;;;0.70;;
14797;SDS011;7490;63.708;20.368;2023-12-20T07:06:47;1.27;;;0.60;;
14797;SDS011;7490;63.708;20.368;2023-12-20T07:09:16;0.83;;;0.80;;
14797;SDS011;7490;63.708;20.368;2023-12-20T07:11:41;0.83;;;0.70;;
14797;SDS011;7490;63.708;20.368;2023-12-20T07:14:07;1.60;;;1.03;;
14797;SDS011;7490;63.708;20.368;2023-12-20T07:16:33;0.90;;;0.60;;
14797;SDS011;7490;63.708;20.368;2023-12-20T07:19:00;0.60;;;0.60;;
14797;SDS011;7490;63.708;20.368;2023-12-20T07:21:25;1.80;;;0.50;;
14797;SDS011;7490;63.708;20.368;2023-12-20T07:23:51;1.60;;;0.60;;
14797;SDS011;7490;63.708;20.368;2023-12-20T07:26:17;1.00;;;0.63;;
14797;SDS011;7490;63.708;20.368;2023-12-20T07:28:43;1.20;;;0.70;;
14797;SDS011;7490;63.708;20.368;2023-12-20T07:31:09;1.43;;;0.70;;
14797;SDS011;7490;63.708;20.368;2023-12-20T07:33:34;0.57;;;0.50;;
14797;SDS011;7490;63.708;20.368;2023-12-20T07:36:00;0.80;;;0.80;;
14797;SDS011;7490;63.708;20.368;2023-12-20T07:38:26;0.73;;;0.60;;
14797;SDS011;7490;63.708;20.368;2023-12-20T07:40:51;1.20;;;0.80;;
14797;SDS011;7490;63.708;20.368;2023-12-20T07:43:17;1.53;;;0.50;;
14797;SDS011;7490;63.708;20.368;2023-12-20T07:45:42;1.17;;;0.80;;
14797;SDS011;7490;63.708;20.368;2023-12-20T07:48:08;2.87;;;1.00;;
14797;SDS011;7490;63.708;20.368;2023-12-20T07:50:34;0.87;;;0.80;;
14797;SDS011;7490;63.708;20.368;2023-12-20T07:52:59;1.07;;;0.97;;
14797;SDS011;7490;63.708;20.368;2023-12-20T07:55:26;0.70;;;0.70;;
14797;SDS011;7490;63.708;20.368;2023-12-20T07:57:52;1.70;;;0.83;;
14797;SDS011;7490;63.708;20.368;2023-12-20T08:00:18;1.83;;;1.23;;
14797;SDS011;7490;63.708;20.368;2023-12-20T08:02:44;3.70;;;1.00;;
14797;SDS011;7490;63.708;20.368;2023-12-20T08:05:10;1.43;;;0.90;;
14797;SDS011;7490;63.708;20.368;2023-12-20T08:07:35;2.00;;;0.80;;
14797;SDS011;7490;63.708;20.368;2023-12-20T08:10:01;1.50;;;0.93;;
14797;SDS011;7490;63.708;20.368;2023-12-20T08:12:27;1.90;;;1.00;;
14797;SDS011;7490;63.708;20.368;2023-12-20T08:14:53;1.30;;;0.70;;
14797;SDS011;7490;63.708;20.368;2023-12-20T08:17:19;0.60;;;0.60;;
14797;SDS011;7490;63.708;20.368;2023-12-20T08:19:45;2.10;;;0.93;;
14797;SDS011;7490;63.708;20.368;2023-12-20T08:22:11;1.70;;;0.83;;
14797;SDS011;7490;63.708;20.368;2023-12-20T08:24:36;1.77;;;0.80;;
14797;SDS011;7490;63.708;20.368;2023-12-20T08:27:03;1.87;;;0.80;;
14797;SDS011;7490;63.708;20.368;2023-12-20T08:29:29;2.03;;;0.70;;
14797;SDS011;7490;63.708;20.368;2023-12-20T08:31:55;0.70;;;0.70;;
14797;SDS011;7490;63.708;20.368;2023-12-20T08:34:20;1.17;;;0.80;;
14797;SDS011;7490;63.708;20.368;2023-12-20T08:36:46;2.10;;;1.07;;
14797;SDS011;7490;63.708;20.368;2023-12-20T08:39:12;2.27;;;0.80;;
14797;SDS011;7490;63.708;20.368;2023-12-20T08:41:38;1.63;;;0.70;;
14797;SDS011;7490;63.708;20.368;2023-12-20T08:44:03;1.70;;;0.77;;
14797;SDS011;7490;63.708;20.368;2023-12-20T08:46:29;1.23;;;0.70;;
14797;SDS011;7490;63.708;20.368;2023-12-20T08:48:55;1.80;;;0.80;;
14797;SDS011;7490;63.708;20.368;2023-12-20T08:51:20;2.60;;;0.90;;
14797;SDS011;7490;63.708;20.368;2023-12-20T08:53:48;0.80;;;0.80;;
14797;SDS011;7490;63.708;20.368;2023-12-20T08:56:14;1.33;;;0.70;;
14797;SDS011;7490;63.708;20.368;2023-12-20T08:58:40;1.83;;;0.90;;
14797;SDS011;7490;63.708;20.368;2023-12-20T09:01:06;1.10;;;0.67;;
14797;SDS011;7490;63.708;20.368;2023-12-20T09:03:32;1.20;;;0.80;;
14797;SDS011;7490;63.708;20.368;2023-12-20T09:05:58;1.67;;;0.70;;
14797;SDS011;7490;63.708;20.368;2023-12-20T09:08:24;0.70;;;0.70;;
14797;SDS011;7490;63.708;20.368;2023-12-20T09:10:49;1.70;;;0.60;;
14797;SDS011;7490;63.708;20.368;2023-12-20T09:13:15;0.83;;;0.67;;
14797;SDS011;7490;63.708;20.368;2023-12-20T09:15:41;1.63;;;0.67;;
14797;SDS011;7490;63.708;20.368;2023-12-20T09:18:06;1.67;;;1.00;;
14797;SDS011;7490;63.708;20.368;2023-12-20T09:20:33;0.90;;;0.80;;
14797;SDS011;7490;63.708;20.368;2023-12-20T09:22:59;0.80;;;0.80;;
14797;SDS011;7490;63.708;20.368;2023-12-20T09:25:25;0.87;;;0.80;;
14797;SDS011;7490;63.708;20.368;2023-12-20T09:27:51;1.00;;;0.87;;
14797;SDS011;7490;63.708;20.368;2023-12-20T09:30:17;0.97;;;0.70;;
14797;SDS011;7490;63.708;20.368;2023-12-20T09:32:43;2.73;;;0.90;;
14797;SDS011;7490;63.708;20.368;2023-12-20T09:35:10;2.20;;;0.80;;
14797;SDS011;7490;63.708;20.368;2023-12-20T09:37:36;1.00;;;0.90;;
14797;SDS011;7490;63.708;20.368;2023-12-20T09:40:01;1.90;;;0.80;;
14797;SDS011;7490;63.708;20.368;2023-12-20T09:43:14;3.87;;;0.80;;
14797;SDS011;7490;63.708;20.368;2023-12-20T09:45:27;1.10;;;1.10;;
14797;SDS011;7490;63.708;20.368;2023-12-20T09:47:53;1.17;;;0.77;;
14797;SDS011;7490;63.708;20.368;2023-12-20T09:50:22;1.53;;;1.00;;
14797;SDS011;7490;63.708;20.368;2023-12-20T09:52:49;1.20;;;1.03;;
14797;SDS011;7490;63.708;20.368;2023-12-20T09:55:20;1.80;;;1.43;;
14797;SDS011;7490;63.708;20.368;2023-12-20T09:57:46;2.73;;;1.27;;
14797;SDS011;7490;63.708;20.368;2023-12-20T10:00:13;2.10;;;1.17;;
14797;SDS011;7490;63.708;20.368;2023-12-20T10:02:42;2.87;;;0.80;;
14797;SDS011;7490;63.708;20.368;2023-12-20T10:05:15;1.48;;;0.75;;
14797;SDS011;7490;63.708;20.368;2023-12-20T10:07:44;2.97;;;1.10;;
14797;SDS011;7490;63.708;20.368;2023-12-20T10:10:10;0.73;;;0.73;;
14797;SDS011;7490;63.708;20.368;2023-12-20T10:12:38;0.77;;;0.63;;
14797;SDS011;7490;63.708;20.368;2023-12-20T10:15:04;0.83;;;0.60;;
14797;SDS011;7490;63.708;20.368;2023-12-20T10:17:30;1.80;;;0.97;;
14797;SDS011;7490;63.708;20.368;2023-12-20T10:19:57;1.00;;;0.60;;
14797;SDS011;7490;63.708;20.368;2023-12-20T10:22:23;2.20;;;0.93;;
14797;SDS011;7490;63.708;20.368;2023-12-20T10:24:49;0.80;;;0.70;;
14797;SDS011;7490;63.708;20.368;2023-12-20T10:27:15;2.40;;;0.90;;
14797;SDS011;7490;63.708;20.368;2023-12-20T10:29:44;2.00;;;0.67;;
14797;SDS011;7490;63.708;20.368;2023-12-20T10:32:21;0.60;;;0.60;;
14797;SDS011;7490;63.708;20.368;2023-12-20T10:34:49;0.60;;;0.60;;
14797;SDS011;7490;63.708;20.368;2023-12-20T10:37:15;0.63;;;0.50;;
14797;SDS011;7490;63.708;20.368;2023-12-20T10:39:41;0.83;;;0.67;;
14797;SDS011;7490;63.708;20.368;2023-12-20T10:42:08;0.97;;;0.90;;
14797;SDS011;7490;63.708;20.368;2023-12-20T10:44:36;1.00;;;0.70;;
14797;SDS011;7490;63.708;20.368;2023-12-20T10:47:02;2.43;;;0.67;;
14797;SDS011;7490;63.708;20.368;2023-12-20T10:49:29;2.23;;;0.70;;
14797;SDS011;7490;63.708;20.368;2023-12-20T10:51:56;1.73;;;0.90;;
14797;SDS011;7490;63.708;20.368;2023-12-20T10:54:24;1.37;;;0.87;;
14797;SDS011;7490;63.708;20.368;2023-12-20T10:56:50;1.93;;;0.60;;
14797;SDS011;7490;63.708;20.368;2023-12-20T10:59:19;2.73;;;1.23;;
14797;SDS011;7490;63.708;20.368;2023-12-20T11:01:45;1.27;;;0.97;;
14797;SDS011;7490;63.708;20.368;2023-12-20T11:04:15;1.63;;;0.93;;
14797;SDS011;7490;63.708;20.368;2023-12-20T11:07:32;1.57;;;0.80;;
14797;SDS011;7490;63.708;20.368;2023-12-20T11:09:38;2.47;;;1.17;;
14797;SDS011;7490;63.708;20.368;2023-12-20T11:12:16;2.77;;;0.60;;
14797;SDS011;7490;63.708;20.368;2023-12-20T11:14:52;1.67;;;0.87;;
14797;SDS011;7490;63.708;20.368;2023-12-20T11:17:22;1.17;;;1.00;;
14797;SDS011;7490;63.708;20.368;2023-12-20T11:22:18;2.73;;;1.50;;
14797;SDS011;7490;63.708;20.368;2023-12-20T11:24:45;1.70;;;1.00;;
14797;SDS011;7490;63.708;20.368;2023-12-20T11:27:12;1.20;;;0.97;;
14797;SDS011;7490;63.708;20.368;2023-12-20T11:29:38;1.43;;;1.20;;
14797;SDS011;7490;63.708;20.368;2023-12-20T11:34:50;3.27;;;1.43;;
14797;SDS011;7490;63.708;20.368;2023-12-20T11:37:21;1.98;;;1.33;;
14797;SDS011;7490;63.708;20.368;2023-12-20T11:39:56;5.73;;;1.00;;
14797;SDS011;7490;63.708;20.368;2023-12-20T11:42:40;2.00;;;1.80;;
14797;SDS011;7490;63.708;20.368;2023-12-20T11:45:10;1.47;;;1.30;;
14797;SDS011;7490;63.708;20.368;2023-12-20T11:47:39;3.60;;;2.23;;
14797;SDS011;7490;63.708;20.368;2023-12-20T11:50:07;3.22;;;1.90;;
14797;SDS011;7490;63.708;20.368;2023-12-20T11:52:33;3.53;;;1.43;;
14797;SDS011;7490;63.708;20.368;2023-12-20T11:54:58;2.97;;;2.43;;
14797;SDS011;7490;63.708;20.368;2023-12-20T11:57:24;4.43;;;2.73;;
14797;SDS011;7490;63.708;20.368;2023-12-20T11:59:50;2.58;;;2.38;;
14797;SDS011;7490;63.708;20.368;2023-12-20T12:02:16;2.20;;;2.00;;
14797;SDS011;7490;63.708;20.368;2023-12-20T12:04:42;3.60;;;2.60;;
14797;SDS011;7490;63.708;20.368;2023-12-20T12:07:07;3.30;;;1.93;;
14797;SDS011;7490;63.708;20.368;2023-12-20T12:09:33;2.10;;;1.90;;
14797;SDS011;7490;63.708;20.368;2023-12-20T12:11:59;1.80;;;1.70;;
14797;SDS011;7490;63.708;20.368;2023-12-20T12:14:25;2.40;;;2.20;;
14797;SDS011;7490;63.708;20.368;2023-12-20T12:16:51;1.40;;;1.23;;
14797;SDS011;7490;63.708;20.368;2023-12-20T12:19:24;2.22;;;1.55;;
14797;SDS011;7490;63.708;20.368;2023-12-20T12:21:51;1.58;;;1.48;;
14797;SDS011;7490;63.708;20.368;2023-12-20T12:24:35;2.63;;;1.60;;
14797;SDS011;7490;63.708;20.368;2023-12-20T12:27:01;2.13;;;2.00;;
14797;SDS011;7490;63.708;20.368;2023-12-20T12:29:27;2.60;;;1.23;;
14797;SDS011;7490;63.708;20.368;2023-12-20T12:31:54;2.78;;;1.40;;
14797;SDS011;7490;63.708;20.368;2023-12-20T12:34:20;1.40;;;1.30;;
14797;SDS011;7490;63.708;20.368;2023-12-20T12:36:45;1.00;;;1.00;;
14797;SDS011;7490;63.708;20.368;2023-12-20T12:39:14;2.00;;;1.00;;
14797;SDS011;7490;63.708;20.368;2023-12-20T12:41:42;3.22;;;1.33;;
14797;SDS011;7490;63.708;20.368;2023-12-20T12:44:08;2.83;;;1.80;;
14797;SDS011;7490;63.708;20.368;2023-12-20T12:46:33;4.60;;;3.50;;
14797;SDS011;7490;63.708;20.368;2023-12-20T12:48:59;2.33;;;1.37;;
14797;SDS011;7490;63.708;20.368;2023-12-20T12:51:25;3.30;;;1.30;;
14797;SDS011;7490;63.708;20.368;2023-12-20T12:53:51;1.30;;;1.20;;
14797;SDS011;7490;63.708;20.368;2023-12-20T12:56:16;1.77;;;1.40;;
14797;SDS011;7490;63.708;20.368;2023-12-20T12:58:42;2.53;;;0.90;;
14797;SDS011;7490;63.708;20.368;2023-12-20T13:01:08;2.07;;;1.33;;
14797;SDS011;7490;63.708;20.368;2023-12-20T13:03:34;1.20;;;1.00;;
14797;SDS011;7490;63.708;20.368;2023-12-20T13:06:00;0.98;;;0.93;;
14797;SDS011;7490;63.708;20.368;2023-12-20T13:08:26;1.80;;;1.43;;
14797;SDS011;7490;63.708;20.368;2023-12-20T13:10:53;2.08;;;1.33;;
14797;SDS011;7490;63.708;20.368;2023-12-20T13:13:20;2.22;;;2.00;;
14797;SDS011;7490;63.708;20.368;2023-12-20T13:15:46;3.97;;;2.27;;
14797;SDS011;7490;63.708;20.368;2023-12-20T13:18:16;3.70;;;3.05;;
14797;SDS011;7490;63.708;20.368;2023-12-20T13:20:43;2.53;;;1.50;;
14797;SDS011;7490;63.708;20.368;2023-12-20T13:23:09;2.30;;;1.20;;
14797;SDS011;7490;63.708;20.368;2023-12-20T13:25:35;3.40;;;1.10;;
14797;SDS011;7490;63.708;20.368;2023-12-20T13:28:01;2.10;;;1.10;;
14797;SDS011;7490;63.708;20.368;2023-12-20T13:30:27;1.70;;;1.27;;
14797;SDS011;7490;63.708;20.368;2023-12-20T13:32:53;4.60;;;1.33;;
14797;SDS011;7490;63.708;20.368;2023-12-20T13:35:19;1.30;;;1.07;;
14797;SDS011;7490;63.708;20.368;2023-12-20T13:37:45;2.05;;;1.10;;
14797;SDS011;7490;63.708;20.368;2023-12-20T13:40:11;3.53;;;0.90;;
14797;SDS011;7490;63.708;20.368;2023-12-20T13:42:37;1.05;;;1.05;;
14797;SDS011;7490;63.708;20.368;2023-12-20T13:45:04;1.92;;;0.93;;
14797;SDS011;7490;63.708;20.368;2023-12-20T13:47:31;0.65;;;0.65;;
14797;SDS011;7490;63.708;20.368;2023-12-20T13:49:57;1.67;;;0.90;;
14797;SDS011;7490;63.708;20.368;2023-12-20T13:52:23;1.07;;;0.80;;
14797;SDS011;7490;63.708;20.368;2023-12-20T13:54:49;0.97;;;0.80;;
14797;SDS011;7490;63.708;20.368;2023-12-20T13:57:14;1.70;;;0.90;;
14797;SDS011;7490;63.708;20.368;2023-12-20T13:59:40;2.57;;;1.00;;
14797;SDS011;7490;63.708;20.368;2023-12-20T14:02:06;4.13;;;1.30;;
14797;SDS011;7490;63.708;20.368;2023-12-20T14:04:31;1.80;;;1.10;;
14797;SDS011;7490;63.708;20.368;2023-12-20T14:06:57;1.30;;;1.20;;
14797;SDS011;7490;63.708;20.368;2023-12-20T14:09:23;2.93;;;1.67;;
14797;SDS011;7490;63.708;20.368;2023-12-20T14:11:49;1.95;;;1.15;;
14797;SDS011;7490;63.708;20.368;2023-12-20T14:14:15;3.23;;;1.30;;
14797;SDS011;7490;63.708;20.368;2023-12-20T14:16:40;1.40;;;1.37;;
14797;SDS011;7490;63.708;20.368;2023-12-20T14:19:09;1.10;;;1.00;;
14797;SDS011;7490;63.708;20.368;2023-12-20T14:21:34;2.00;;;1.43;;
14797;SDS011;7490;63.708;20.368;2023-12-20T14:24:00;2.13;;;1.10;;
14797;SDS011;7490;63.708;20.368;2023-12-20T14:26:26;1.67;;;1.43;;
14797;SDS011;7490;63.708;20.368;2023-12-20T14:28:53;2.17;;;1.13;;
14797;SDS011;7490;63.708;20.368;2023-12-20T14:31:19;2.55;;;1.40;;
14797;SDS011;7490;63.708;20.368;2023-12-20T14:33:44;2.00;;;1.20;;
14797;SDS011;7490;63.708;20.368;2023-12-20T14:36:11;2.15;;;1.40;;
14797;SDS011;7490;63.708;20.368;2023-12-20T14:38:36;1.50;;;1.00;;
14797;SDS011;7490;63.708;20.368;2023-12-20T14:41:02;1.33;;;0.93;;
14797;SDS011;7490;63.708;20.368;2023-12-20T14:43:29;1.67;;;1.33;;
14797;SDS011;7490;63.708;20.368;2023-12-20T14:45:55;0.80;;;0.80;;
14797;SDS011;7490;63.708;20.368;2023-12-20T14:48:20;1.10;;;0.80;;
14797;SDS011;7490;63.708;20.368;2023-12-20T14:50:46;1.30;;;0.90;;